Time;durP1;ratioP1;P1;durP2;ratioP2;P2;SDS_P1;SDS_P2;PMS_P1;PMS_P2;Temp;Humidity;BMP_temperature;BMP_pressure;BME280_temperature;BME280_humidity;BME280_pressure;Samples;Min_cycle;Max_cycle;Signal;HPM_P1;HPM_P2
2023/07/28 00:01:36;;;;;;;3.00;2.70;;;17.30;99.90;;;;;;4958630;28;20489;-84
2023/07/28 00:04:06;;;;;;;3.47;2.70;;;17.30;99.90;;;;;;4956999;28;20421;-84
2023/07/28 00:06:32;;;;;;;3.25;2.70;;;17.30;99.90;;;;;;4975064;28;20404;-84
2023/07/28 00:08:58;;;;;;;3.10;2.80;;;17.90;99.90;;;;;;4973366;28;20813;-83
2023/07/28 00:11:23;;;;;;;5.30;3.10;;;17.50;99.90;;;;;;4975962;28;20388;-84
2023/07/28 00:13:49;;;;;;;2.45;2.25;;;17.50;99.90;;;;;;4974907;28;20424;-84
2023/07/28 00:16:14;;;;;;;2.80;2.60;;;17.50;99.90;;;;;;4975036;28;20426;-84
2023/07/28 00:18:40;;;;;;;3.00;2.80;;;17.50;99.90;;;;;;4975975;28;20534;-84
2023/07/28 00:21:06;;;;;;;3.70;2.60;;;17.50;99.90;;;;;;4976569;28;20395;-84
2023/07/28 00:23:31;;;;;;;3.15;2.80;;;17.40;99.90;;;;;;4978018;28;20416;-84
2023/07/28 00:25:57;;;;;;;3.30;2.70;;;17.40;99.90;;;;;;4957774;28;20909;-84
2023/07/28 00:28:22;;;;;;;2.88;2.67;;;17.50;99.90;;;;;;4957374;28;20786;-84
2023/07/28 00:30:51;;;;;;;3.60;2.23;;;17.50;99.90;;;;;;4957732;28;20795;-84
2023/07/28 00:33:17;;;;;;;3.78;3.03;;;17.40;99.90;;;;;;4974116;28;20396;-83
2023/07/28 00:35:42;;;;;;;3.53;2.78;;;17.50;99.90;;;;;;4975092;28;20399;-84
2023/07/28 00:38:09;;;;;;;2.80;2.60;;;17.50;99.90;;;;;;4974965;28;20403;-84
2023/07/28 00:40:35;;;;;;;2.42;2.15;;;17.60;99.90;;;;;;4965045;28;20747;-84
2023/07/28 00:43:01;;;;;;;2.88;2.60;;;17.60;99.90;;;;;;4955552;28;20451;-84
2023/07/28 00:45:27;;;;;;;3.30;3.00;;;17.60;99.90;;;;;;4956643;28;20485;-84
2023/07/28 00:47:54;;;;;;;3.05;2.60;;;17.60;99.90;;;;;;4955906;28;20408;-84
2023/07/28 00:50:20;;;;;;;3.05;2.60;;;17.60;99.90;;;;;;4961871;28;20435;-83
2023/07/28 00:52:46;;;;;;;2.83;2.60;;;17.60;99.90;;;;;;4966866;28;20464;-84
2023/07/28 00:55:12;;;;;;;3.00;2.20;;;17.60;99.90;;;;;;4961773;28;20417;-83
2023/07/28 00:57:39;;;;;;;3.10;2.50;;;17.60;99.90;;;;;;4978701;28;20406;-82
2023/07/28 01:00:05;;;;;;;2.72;2.38;;;17.50;99.90;;;;;;4977780;28;20444;-83
2023/07/28 01:02:31;;;;;;;3.85;2.60;;;17.40;99.90;;;;;;4964110;28;20415;-82
2023/07/28 01:04:57;;;;;;;2.60;2.40;;;17.40;99.90;;;;;;4975143;28;20411;-83
2023/07/28 01:07:32;;;;;;;3.10;2.80;;;17.40;99.90;;;;;;4957042;28;20437;-84
2023/07/28 01:10:12;;;;;;;2.80;2.50;;;17.20;99.90;;;;;;4956629;28;20457;-83
2023/07/28 01:12:38;;;;;;;2.50;2.30;;;17.30;99.90;;;;;;4966370;28;20420;-81
2023/07/28 01:15:04;;;;;;;3.10;2.80;;;17.40;99.90;;;;;;4972378;28;20393;-81
2023/07/28 01:17:30;;;;;;;2.97;2.77;;;17.40;99.90;;;;;;4991549;28;20407;-82
2023/07/28 01:19:55;;;;;;;3.97;2.50;;;17.30;99.90;;;;;;4961862;28;20426;-83
2023/07/28 01:22:47;;;;;;;3.38;2.72;;;17.30;99.90;;;;;;4955394;28;20406;-83
2023/07/28 01:25:25;;;;;;;5.50;3.03;;;17.30;99.90;;;;;;4955137;28;20450;-83
2023/07/28 01:27:53;;;;;;;3.20;2.67;;;17.20;99.90;;;;;;4955438;28;20785;-84
2023/07/28 01:30:20;;;;;;;3.23;2.40;;;17.20;99.90;;;;;;4973005;28;20400;-83
2023/07/28 01:32:47;;;;;;;2.97;2.78;;;17.20;99.90;;;;;;4972051;28;20475;-83
2023/07/28 01:35:13;;;;;;;3.10;2.80;;;17.20;99.90;;;;;;4973809;28;20439;-84
2023/07/28 01:37:38;;;;;;;3.10;2.50;;;17.20;99.90;;;;;;4973818;28;20825;-83
2023/07/28 01:40:04;;;;;;;3.20;2.50;;;17.20;99.90;;;;;;4974822;28;20426;-84
2023/07/28 01:42:30;;;;;;;2.80;2.60;;;17.20;99.90;;;;;;4974057;28;20388;-84
2023/07/28 01:44:55;;;;;;;3.72;2.80;;;17.20;99.90;;;;;;4964036;28;20997;-83
2023/07/28 01:47:21;;;;;;;3.47;3.00;;;17.30;99.90;;;;;;4954339;28;20433;-83
2023/07/28 01:49:46;;;;;;;3.50;2.57;;;17.30;99.90;;;;;;4954157;28;20469;-83
2023/07/28 01:52:12;;;;;;;3.20;2.60;;;17.40;99.90;;;;;;4954025;28;20405;-83
2023/07/28 01:54:37;;;;;;;2.90;2.70;;;17.30;99.90;;;;;;4961396;28;20404;-84
2023/07/28 01:57:04;;;;;;;3.05;2.70;;;17.40;99.90;;;;;;4971797;28;20415;-83
2023/07/28 01:59:29;;;;;;;3.00;2.70;;;17.40;99.90;;;;;;4973741;28;20408;-84
2023/07/28 02:01:55;;;;;;;2.70;2.50;;;17.50;99.90;;;;;;4968692;28;20413;-83
2023/07/28 02:04:20;;;;;;;2.40;2.20;;;17.40;99.90;;;;;;4953786;28;20385;-83
2023/07/28 02:06:46;;;;;;;5.53;2.70;;;17.40;99.90;;;;;;4953680;28;20830;-84
2023/07/28 02:09:11;;;;;;;3.53;3.00;;;17.40;99.90;;;;;;4954698;28;20390;-82
2023/07/28 02:11:37;;;;;;;3.90;2.77;;;17.40;99.90;;;;;;4954576;28;20481;-82
2023/07/28 02:14:02;;;;;;;3.80;2.70;;;17.40;99.90;;;;;;4974064;28;20396;-83
2023/07/28 02:16:30;;;;;;;4.27;3.03;;;17.40;99.90;;;;;;4976948;28;20903;-84
2023/07/28 02:18:56;;;;;;;2.80;2.60;;;17.40;99.90;;;;;;4982574;28;20930;-83
2023/07/28 02:21:21;;;;;;;3.35;2.60;;;17.40;99.90;;;;;;4969094;28;20405;-83
2023/07/28 02:23:48;;;;;;;4.50;2.50;;;17.40;99.90;;;;;;4959749;28;20412;-83
2023/07/28 02:26:13;;;;;;;3.50;2.55;;;17.40;99.90;;;;;;4956565;28;20461;-82
2023/07/28 02:28:39;;;;;;;2.83;2.53;;;17.50;99.90;;;;;;4961098;28;20402;-83
2023/07/28 02:31:04;;;;;;;3.67;3.00;;;17.50;99.90;;;;;;4969501;28;20447;-83
2023/07/28 02:33:31;;;;;;;2.83;2.50;;;17.40;99.90;;;;;;4972814;28;20483;-82
2023/07/28 02:35:57;;;;;;;3.78;2.63;;;17.50;99.90;;;;;;4973233;28;20403;-83
2023/07/28 02:38:22;;;;;;;3.80;2.87;;;17.50;99.90;;;;;;4973856;28;20399;-83
2023/07/28 02:40:48;;;;;;;3.10;2.80;;;17.50;99.90;;;;;;4971955;28;20584;-82
2023/07/28 02:43:13;;;;;;;3.30;2.60;;;18.00;99.90;;;;;;4973045;28;20499;-82
2023/07/28 02:45:39;;;;;;;3.05;2.70;;;17.50;99.90;;;;;;4957433;28;20405;-83
2023/07/28 02:48:04;;;;;;;2.90;2.67;;;17.50;99.90;;;;;;4953180;28;20397;-83
2023/07/28 02:50:30;;;;;;;3.20;2.50;;;17.50;99.90;;;;;;4951737;28;20416;-82
2023/07/28 02:52:56;;;;;;;3.53;2.90;;;17.40;99.90;;;;;;4963709;28;20442;-81
2023/07/28 02:55:21;;;;;;;3.00;2.77;;;17.40;99.90;;;;;;4972291;28;20500;-82
2023/07/28 02:57:47;;;;;;;3.90;2.93;;;17.40;99.90;;;;;;4971968;28;20392;-83
2023/07/28 03:00:13;;;;;;;3.50;3.20;;;17.40;99.90;;;;;;4971632;28;20451;-82
2023/07/28 03:02:38;;;;;;;3.40;2.70;;;17.40;99.90;;;;;;4965130;28;20413;-82
2023/07/28 03:05:04;;;;;;;3.50;2.80;;;17.50;99.90;;;;;;4955303;28;20438;-82
2023/07/28 03:07:30;;;;;;;3.50;3.17;;;17.20;99.90;;;;;;4971480;28;20415;-83
2023/07/28 03:09:55;;;;;;;3.00;2.70;;;17.30;99.90;;;;;;4973308;28;20416;-83
2023/07/28 03:12:21;;;;;;;3.75;2.85;;;17.30;99.90;;;;;;4971299;28;20391;-83
2023/07/28 03:14:46;;;;;;;3.57;3.27;;;17.30;99.90;;;;;;4973304;28;20388;-83
2023/07/28 03:17:12;;;;;;;4.60;2.80;;;17.30;99.90;;;;;;4958578;28;20994;-82
2023/07/28 03:19:37;;;;;;;3.13;2.87;;;17.30;99.90;;;;;;4952631;28;20719;-83
2023/07/28 03:22:03;;;;;;;4.20;2.90;;;17.40;99.90;;;;;;4967564;28;20435;-82
2023/07/28 03:24:29;;;;;;;5.22;3.17;;;17.30;99.90;;;;;;4973508;28;20471;-82
2023/07/28 03:26:54;;;;;;;3.20;2.90;;;17.30;99.90;;;;;;4976724;28;20387;-82
2023/07/28 03:29:20;;;;;;;3.30;2.80;;;17.30;99.90;;;;;;4982953;28;20416;-82
2023/07/28 03:31:46;;;;;;;4.63;3.00;;;17.30;99.90;;;;;;4964115;28;20452;-83
2023/07/28 03:34:11;;;;;;;3.33;2.87;;;17.30;99.90;;;;;;4970197;28;20392;-84
2023/07/28 03:36:37;;;;;;;3.70;2.80;;;17.30;99.90;;;;;;4974873;28;20389;-83
2023/07/28 03:39:02;;;;;;;3.38;3.08;;;17.30;99.90;;;;;;4974703;28;20396;-83
2023/07/28 03:41:28;;;;;;;3.50;3.10;;;17.40;99.90;;;;;;4974177;28;20404;-83
2023/07/28 03:43:54;;;;;;;4.63;3.10;;;17.30;99.90;;;;;;4975533;28;20470;-83
2023/07/28 03:46:20;;;;;;;3.10;2.80;;;17.40;99.90;;;;;;4973436;28;20396;-83
2023/07/28 03:48:47;;;;;;;3.20;2.90;;;17.40;99.90;;;;;;4962444;28;21206;-83
2023/07/28 03:51:12;;;;;;;3.00;2.80;;;16.70;99.90;;;;;;4954649;28;20748;-83
2023/07/28 03:53:38;;;;;;;3.83;3.10;;;17.30;99.90;;;;;;4953676;28;20397;-83
2023/07/28 03:56:04;;;;;;;3.20;2.90;;;17.30;99.90;;;;;;4966399;28;20400;-83
2023/07/28 03:58:29;;;;;;;3.80;2.80;;;17.30;99.90;;;;;;4972429;28;20403;-83
2023/07/28 04:00:55;;;;;;;3.40;3.10;;;17.30;99.90;;;;;;4974384;28;20404;-83
2023/07/28 04:03:20;;;;;;;3.40;3.10;;;17.40;99.90;;;;;;4977841;28;20866;-83
2023/07/28 04:05:46;;;;;;;3.70;3.25;;;17.30;99.90;;;;;;4967679;28;20397;-83
2023/07/28 04:08:12;;;;;;;3.57;3.13;;;17.30;99.90;;;;;;4957762;28;20389;-83
2023/07/28 04:10:37;;;;;;;3.40;3.10;;;17.50;99.90;;;;;;4958057;28;20479;-83
2023/07/28 04:13:03;;;;;;;3.17;2.90;;;17.30;99.90;;;;;;4957534;28;20818;-84
2023/07/28 04:15:28;;;;;;;2.90;2.70;;;17.30;99.90;;;;;;4977978;28;20398;-84
2023/07/28 04:17:54;;;;;;;3.60;3.30;;;17.30;99.90;;;;;;4980233;28;20400;-84
2023/07/28 04:20:19;;;;;;;2.92;2.72;;;17.30;99.90;;;;;;4976350;28;20396;-82
2023/07/28 04:22:45;;;;;;;3.17;2.97;;;17.40;99.90;;;;;;4976578;28;20527;-83
2023/07/28 04:25:10;;;;;;;3.40;3.10;;;17.50;99.90;;;;;;4958970;28;20489;-82
2023/07/28 04:27:36;;;;;;;2.90;2.70;;;18.10;99.90;;;;;;4959910;28;20405;-82
2023/07/28 04:30:01;;;;;;;2.90;2.70;;;17.60;99.90;;;;;;4966410;28;20429;-83
2023/07/28 04:32:27;;;;;;;3.20;2.90;;;17.60;99.90;;;;;;4956337;28;20433;-84
2023/07/28 04:34:53;;;;;;;3.80;2.77;;;17.60;99.90;;;;;;4976180;28;20780;-83
2023/07/28 04:37:19;;;;;;;3.00;2.75;;;17.70;99.90;;;;;;4976021;28;20456;-83
2023/07/28 04:39:44;;;;;;;3.90;2.70;;;17.70;99.90;;;;;;4976182;28;20883;-84
2023/07/28 04:42:10;;;;;;;3.53;2.83;;;17.70;99.90;;;;;;4975256;28;20447;-83
2023/07/28 04:44:37;;;;;;;2.97;2.67;;;17.80;99.90;;;;;;4976868;28;20422;-82
2023/07/28 04:47:03;;;;;;;3.30;2.40;;;17.80;99.90;;;;;;4976903;28;20745;-84
2023/07/28 04:49:28;;;;;;;3.00;2.80;;;17.90;99.90;;;;;;4964895;28;20418;-83
2023/07/28 04:51:54;;;;;;;2.87;2.30;;;18.20;99.90;;;;;;4961089;28;20386;-83
2023/07/28 04:54:19;;;;;;;3.40;2.30;;;18.80;99.90;;;;;;4956172;28;20394;-83
2023/07/28 04:56:45;;;;;;;2.17;1.83;;;19.20;99.90;;;;;;4957140;28;21036;-82
2023/07/28 04:59:11;;;;;;;3.50;1.90;;;19.90;99.90;;;;;;4962347;28;20488;-83
2023/07/28 05:01:36;;;;;;;3.37;2.13;;;20.10;99.90;;;;;;4955001;28;20897;-83
2023/07/28 05:04:02;;;;;;;1.80;1.70;;;20.20;99.90;;;;;;4956552;28;20412;-83
2023/07/28 05:06:28;;;;;;;1.87;1.67;;;20.30;99.90;;;;;;4977411;28;20387;-83
2023/07/28 05:08:53;;;;;;;2.38;1.60;;;20.50;99.90;;;;;;4972346;28;20453;-82
2023/07/28 05:11:19;;;;;;;1.50;1.40;;;21.00;99.90;;;;;;4972367;28;20986;-83
2023/07/28 05:13:44;;;;;;;1.90;1.70;;;20.70;99.90;;;;;;4977108;28;20433;-82
2023/07/28 05:16:10;;;;;;;2.20;1.70;;;20.80;99.90;;;;;;4957462;28;20402;-84
2023/07/28 05:18:36;;;;;;;2.90;1.67;;;21.00;99.90;;;;;;4956853;28;20769;-83
2023/07/28 05:21:02;;;;;;;2.47;1.60;;;21.00;99.90;;;;;;4990889;28;20392;-79
2023/07/28 05:23:28;;;;;;;2.00;1.70;;;21.30;99.90;;;;;;4976023;28;20428;-83
2023/07/28 05:25:53;;;;;;;2.20;1.65;;;21.20;99.90;;;;;;4961748;28;20481;-84
2023/07/28 05:28:19;;;;;;;2.83;1.60;;;21.20;99.90;;;;;;4973577;28;20491;-84
2023/07/28 05:30:44;;;;;;;2.20;1.70;;;21.10;99.90;;;;;;4972041;28;20425;-83
2023/07/28 05:33:10;;;;;;;2.42;1.63;;;21.20;99.90;;;;;;4961938;28;20400;-84
2023/07/28 05:35:35;;;;;;;2.00;1.80;;;21.10;99.90;;;;;;4955884;28;20473;-84
2023/07/28 05:38:01;;;;;;;2.70;1.70;;;21.10;99.90;;;;;;4965097;28;20400;-83
2023/07/28 05:40:26;;;;;;;1.67;1.50;;;21.10;99.90;;;;;;4974761;28;20893;-83
2023/07/28 05:42:52;;;;;;;1.90;1.70;;;21.10;99.90;;;;;;4976805;28;20413;-84
2023/07/28 05:45:18;;;;;;;3.67;1.97;;;21.10;99.90;;;;;;4975222;28;20405;-84
2023/07/28 05:47:43;;;;;;;3.03;2.20;;;21.20;99.90;;;;;;4971206;28;20491;-83
2023/07/28 05:50:09;;;;;;;2.83;1.60;;;21.20;99.90;;;;;;4961801;28;20440;-82
2023/07/28 05:52:34;;;;;;;2.60;1.80;;;21.10;99.90;;;;;;4976298;28;20808;-85
2023/07/28 05:55:00;;;;;;;2.53;2.05;;;21.10;99.90;;;;;;4985418;28;20396;-84
2023/07/28 05:57:25;;;;;;;2.30;1.60;;;21.10;99.90;;;;;;4991396;28;20440;-83
2023/07/28 05:59:51;;;;;;;2.50;1.60;;;21.00;99.90;;;;;;4978799;28;20410;-83
2023/07/28 06:02:16;;;;;;;2.63;1.70;;;21.00;99.90;;;;;;4957308;28;20472;-84
2023/07/28 06:04:42;;;;;;;1.95;1.63;;;21.00;99.90;;;;;;4959487;28;20409;-84
2023/07/28 06:07:08;;;;;;;2.80;1.60;;;21.10;99.90;;;;;;4960239;28;20412;-84
2023/07/28 06:09:33;;;;;;;2.15;1.80;;;20.90;99.90;;;;;;4972907;28;20443;-83
2023/07/28 06:11:59;;;;;;;2.40;1.90;;;20.80;99.90;;;;;;4974746;28;20399;-84
2023/07/28 06:14:24;;;;;;;2.60;1.90;;;20.90;99.90;;;;;;4976453;28;20387;-85
2023/07/28 06:16:50;;;;;;;2.42;1.73;;;20.80;99.90;;;;;;4973448;28;20463;-83
2023/07/28 06:19:16;;;;;;;1.93;1.83;;;21.30;99.90;;;;;;4957966;28;20400;-83
2023/07/28 06:21:42;;;;;;;2.08;1.65;;;20.90;99.90;;;;;;4956608;28;20505;-84
2023/07/28 06:24:07;;;;;;;2.10;1.90;;;22.50;99.90;;;;;;4955515;28;20394;-82
2023/07/28 06:26:33;;;;;;;3.00;1.83;;;20.90;99.90;;;;;;4959780;28;20781;-83
2023/07/28 06:28:58;;;;;;;2.20;1.80;;;20.70;99.90;;;;;;4974731;28;20408;-84
2023/07/28 06:31:24;;;;;;;2.50;2.00;;;20.60;99.90;;;;;;4974821;28;20467;-83
2023/07/28 06:33:49;;;;;;;2.33;2.03;;;20.50;99.90;;;;;;4973621;28;21022;-83
2023/07/28 06:36:15;;;;;;;3.00;2.00;;;20.50;99.90;;;;;;4974357;28;20550;-83
2023/07/28 06:38:42;;;;;;;2.53;2.10;;;19.90;99.90;;;;;;4957866;28;20405;-83
2023/07/28 06:41:08;;;;;;;2.20;2.00;;;20.60;99.90;;;;;;4955197;28;20446;-83
2023/07/28 06:43:34;;;;;;;2.05;1.85;;;20.60;99.90;;;;;;4954227;28;20394;-83
2023/07/28 06:45:59;;;;;;;2.00;1.70;;;20.70;99.90;;;;;;4954083;28;20782;-84
2023/07/28 06:48:25;;;;;;;2.88;1.80;;;20.80;99.90;;;;;;4970487;28;20407;-83
2023/07/28 06:50:50;;;;;;;3.00;2.00;;;20.90;99.90;;;;;;4974098;28;20408;-83
2023/07/28 06:53:16;;;;;;;3.20;2.20;;;21.40;99.90;;;;;;4974202;28;20396;-84
2023/07/28 06:55:43;;;;;;;3.13;2.10;;;20.80;99.90;;;;;;4968688;28;20894;-84
2023/07/28 06:58:09;;;;;;;2.30;2.03;;;21.00;99.90;;;;;;4953187;28;20504;-84
2023/07/28 07:00:35;;;;;;;2.35;2.15;;;21.00;99.90;;;;;;4953229;28;20477;-83
2023/07/28 07:03:00;;;;;;;2.27;2.03;;;21.10;99.90;;;;;;4953829;28;20401;-83
2023/07/28 07:05:26;;;;;;;2.65;2.20;;;21.30;99.90;;;;;;4954779;28;20473;-84
2023/07/28 07:07:52;;;;;;;2.60;2.10;;;21.30;99.90;;;;;;4976252;28;20427;-82
2023/07/28 07:10:18;;;;;;;3.50;2.10;;;21.30;99.90;;;;;;4976710;28;20423;-81
2023/07/28 07:12:43;;;;;;;2.90;2.30;;;21.40;99.90;;;;;;4962949;28;20402;-83
2023/07/28 07:15:11;;;;;;;2.70;2.20;;;21.20;99.90;;;;;;4956495;28;20485;-81
2023/07/28 07:17:37;;;;;;;2.78;2.25;;;21.30;99.90;;;;;;4957652;28;20382;-81
2023/07/28 07:20:03;;;;;;;2.90;2.60;;;21.30;99.90;;;;;;4957901;28;20436;-82
2023/07/28 07:22:28;;;;;;;2.50;2.30;;;21.20;99.90;;;;;;4973913;28;20414;-81
2023/07/28 07:24:54;;;;;;;2.40;2.20;;;21.10;99.90;;;;;;4976413;28;20436;-81
2023/07/28 07:27:19;;;;;;;2.80;2.30;;;21.10;99.90;;;;;;4977064;28;20446;-82
2023/07/28 07:29:45;;;;;;;2.45;2.22;;;21.10;99.90;;;;;;4965969;28;20456;-81
2023/07/28 07:32:11;;;;;;;2.80;2.60;;;21.10;99.90;;;;;;4958813;28;20390;-81
2023/07/28 07:34:38;;;;;;;3.50;2.40;;;21.30;99.90;;;;;;4985676;28;20392;-80
2023/07/28 07:37:04;;;;;;;2.20;2.00;;;21.20;99.90;;;;;;4986195;28;20406;-81
2023/07/28 07:39:29;;;;;;;2.40;2.20;;;21.30;99.90;;;;;;4979474;28;20428;-81
2023/07/28 07:41:55;;;;;;;2.30;2.03;;;21.40;99.90;;;;;;4979786;28;20399;-82
2023/07/28 07:44:20;;;;;;;2.53;2.33;;;21.40;99.90;;;;;;4980105;28;20400;-80
2023/07/28 07:46:46;;;;;;;2.50;2.30;;;21.40;99.90;;;;;;4980210;28;20781;-81
2023/07/28 07:49:11;;;;;;;2.60;2.33;;;21.40;99.90;;;;;;4978819;28;20408;-81
2023/07/28 07:51:37;;;;;;;3.30;2.40;;;21.40;99.90;;;;;;4978641;28;20395;-81
2023/07/28 07:54:02;;;;;;;2.50;2.30;;;21.40;99.90;;;;;;4977803;28;20384;-80
2023/07/28 07:56:28;;;;;;;3.80;2.20;;;21.40;99.90;;;;;;4981687;28;20388;-80
2023/07/28 07:58:54;;;;;;;3.00;2.30;;;21.40;99.90;;;;;;4961670;28;20890;-80
2023/07/28 08:01:19;;;;;;;2.20;2.00;;;21.40;99.90;;;;;;4958891;28;20409;-79
2023/07/28 08:03:45;;;;;;;2.40;2.20;;;21.50;99.90;;;;;;4960379;28;20390;-80
2023/07/28 08:06:12;;;;;;;3.13;2.60;;;21.50;99.90;;;;;;4959908;28;20917;-81
2023/07/28 08:08:38;;;;;;;2.80;2.00;;;21.70;99.90;;;;;;4973722;28;20457;-81
2023/07/28 08:11:03;;;;;;;2.05;1.85;;;21.70;99.90;;;;;;4965496;28;20760;-80
2023/07/28 08:13:29;;;;;;;2.30;2.05;;;21.80;99.90;;;;;;4999602;23;20435;-80
2023/07/28 08:15:55;;;;;;;2.30;2.10;;;21.80;99.90;;;;;;4975504;28;20396;-81
2023/07/28 08:18:20;;;;;;;2.77;2.03;;;21.70;99.90;;;;;;4982063;28;20380;-79
2023/07/28 08:20:46;;;;;;;3.63;2.60;;;21.70;99.90;;;;;;4969929;28;20393;-79
2023/07/28 08:23:11;;;;;;;2.40;2.20;;;21.70;99.90;;;;;;4949095;29;20395;-81
2023/07/28 08:25:37;;;;;;;2.60;2.28;;;21.80;99.90;;;;;;4937957;29;20387;-80
2023/07/28 08:28:03;;;;;;;2.60;2.40;;;21.70;99.90;;;;;;4953735;29;20398;-80
2023/07/28 08:30:29;;;;;;;2.10;1.90;;;21.80;99.90;;;;;;4956928;29;20966;-81
2023/07/28 08:32:54;;;;;;;2.60;2.40;;;21.70;99.90;;;;;;4948372;29;20440;-80
2023/07/28 08:35:20;;;;;;;2.80;2.15;;;21.80;99.90;;;;;;4956939;28;20477;-80
2023/07/28 08:37:45;;;;;;;2.77;2.20;;;21.80;99.90;;;;;;4955864;29;20822;-81
2023/07/28 08:40:12;;;;;;;1.98;1.70;;;21.80;99.90;;;;;;4954789;29;20425;-80
2023/07/28 08:42:40;;;;;;;2.10;1.90;;;21.90;99.90;;;;;;4956022;29;20468;-81
2023/07/28 08:45:07;;;;;;;2.00;1.80;;;22.10;99.90;;;;;;4957514;28;20389;-80
2023/07/28 08:47:33;;;;;;;3.05;1.80;;;22.20;99.90;;;;;;4955985;28;20407;-79
2023/07/28 08:49:59;;;;;;;2.87;2.03;;;22.10;99.90;;;;;;4955894;29;20413;-81
2023/07/28 08:52:24;;;;;;;2.00;1.80;;;22.10;99.90;;;;;;4954974;28;20542;-80
2023/07/28 08:54:50;;;;;;;2.27;2.07;;;22.20;99.90;;;;;;4955734;28;20398;-80
2023/07/28 08:57:16;;;;;;;2.42;1.70;;;22.30;99.90;;;;;;4956090;28;20456;-79
2023/07/28 08:59:47;;;;;;;2.20;2.00;;;22.40;99.90;;;;;;4956371;29;20390;-79
2023/07/28 09:02:15;;;;;;;2.03;1.83;;;22.30;99.90;;;;;;4954310;29;20480;-81
2023/07/28 09:04:42;;;;;;;1.88;1.70;;;22.30;99.90;;;;;;4955582;28;20404;-80
2023/07/28 09:07:07;;;;;;;2.90;1.90;;;22.20;99.90;;;;;;4954904;28;20398;-81
2023/07/28 09:09:33;;;;;;;2.60;1.90;;;22.30;99.90;;;;;;4950493;29;20422;-82
2023/07/28 09:12:00;;;;;;;2.30;2.10;;;22.20;99.90;;;;;;4951587;28;20397;-80
2023/07/28 09:14:26;;;;;;;2.35;2.00;;;22.20;99.90;;;;;;4953866;29;20408;-81
2023/07/28 09:16:53;;;;;;;2.95;1.80;;;22.30;99.90;;;;;;4951133;28;20498;-80
2023/07/28 09:19:20;;;;;;;1.92;1.63;;;22.30;99.90;;;;;;4936394;29;20407;-81
2023/07/28 09:21:58;;;;;;;3.20;2.10;;;22.40;99.90;;;;;;4936076;29;20388;-80
2023/07/28 09:24:33;;;;;;;2.20;2.00;;;22.50;99.90;;;;;;4942355;29;20462;-81
2023/07/28 09:26:59;;;;;;;2.80;2.20;;;22.30;99.90;;;;;;4940852;29;20458;-80
2023/07/28 09:29:27;;;;;;;3.30;2.33;;;22.20;99.90;;;;;;4954628;29;20492;-80
2023/07/28 09:32:02;;;;;;;3.00;2.08;;;22.20;99.90;;;;;;4946732;28;20766;-82
2023/07/28 09:34:28;;;;;;;4.30;2.10;;;22.30;99.90;;;;;;4948572;29;20406;-80
2023/07/28 09:36:55;;;;;;;2.22;2.03;;;22.40;99.90;;;;;;4955456;29;20959;-80
2023/07/28 09:39:21;;;;;;;2.30;2.10;;;22.30;99.90;;;;;;4952185;28;20406;-80
2023/07/28 09:41:47;;;;;;;2.10;1.90;;;22.50;99.90;;;;;;4954736;28;20413;-80
2023/07/28 09:44:13;;;;;;;4.20;2.20;;;22.60;99.90;;;;;;4955173;28;20394;-80
2023/07/28 09:46:53;;;;;;;2.27;2.07;;;22.60;99.90;;;;;;4949194;28;20481;-79
2023/07/28 09:49:28;;;;;;;3.30;2.00;;;22.80;99.90;;;;;;4956171;28;20413;-79
2023/07/28 09:51:57;;;;;;;2.63;2.10;;;22.90;99.90;;;;;;4955272;28;20390;-79
2023/07/28 09:54:29;;;;;;;2.28;1.92;;;23.00;99.90;;;;;;4955990;28;20389;-78
2023/07/28 09:56:59;;;;;;;2.40;2.20;;;23.00;99.90;;;;;;4948195;28;20786;-81
2023/07/28 09:59:29;;;;;;;2.30;2.10;;;23.10;99.90;;;;;;4942647;28;20433;-79
2023/07/28 10:01:57;;;;;;;2.40;2.20;;;23.10;99.90;;;;;;4945598;29;20430;-78
2023/07/28 10:04:23;;;;;;;3.30;2.13;;;23.10;99.90;;;;;;4945186;28;20898;-79
2023/07/28 10:06:50;;;;;;;2.50;2.30;;;23.30;99.90;;;;;;4944402;29;20400;-79
2023/07/28 10:09:17;;;;;;;2.58;1.90;;;23.30;99.90;;;;;;4947559;29;20837;-79
2023/07/28 10:11:43;;;;;;;2.63;2.20;;;23.30;99.90;;;;;;4943710;29;20471;-79
2023/07/28 10:14:10;;;;;;;2.50;1.87;;;23.10;99.90;;;;;;4943265;29;20481;-79
2023/07/28 10:16:39;;;;;;;4.07;1.92;;;23.30;99.90;;;;;;4939693;29;20410;-79
2023/07/28 10:19:05;;;;;;;2.45;1.83;;;23.20;99.90;;;;;;4935185;29;20436;-79
2023/07/28 10:21:31;;;;;;;3.80;2.17;;;24.50;99.90;;;;;;4939689;29;20442;-79
2023/07/28 10:24:00;;;;;;;2.53;2.30;;;23.40;99.90;;;;;;4934670;28;20433;-79
2023/07/28 10:26:38;;;;;;;2.60;2.20;;;23.40;99.90;;;;;;4946430;29;20397;-79
2023/07/28 10:29:18;;;;;;;3.05;2.40;;;23.30;99.90;;;;;;4942530;29;20427;-81
2023/07/28 10:32:24;;;;;;;3.58;2.63;;;23.20;99.90;;;;;;4942850;29;20758;-78
2023/07/28 10:35:06;;;;;;;2.88;2.13;;;23.20;99.90;;;;;;4944105;29;20477;-79
2023/07/28 10:37:32;;;;;;;2.50;2.10;;;23.30;99.90;;;;;;4946423;29;20413;-79
2023/07/28 10:40:38;;;;;;;3.67;2.20;;;23.40;99.90;;;;;;4950757;28;20394;-81
2023/07/28 10:43:04;;;;;;;3.38;2.60;;;23.60;99.90;;;;;;4875253;29;20408;-81
2023/07/28 10:45:31;;;;;;;2.97;2.60;;;23.60;99.90;;;;;;4940614;28;20405;-79
2023/07/28 10:48:00;;;;;;;2.58;2.17;;;23.60;99.90;;;;;;4937237;28;20407;-79
2023/07/28 10:50:31;;;;;;;2.70;2.40;;;23.60;99.90;;;;;;4933703;29;20571;-80
2023/07/28 10:52:57;;;;;;;2.70;2.50;;;23.70;99.90;;;;;;4946907;29;20957;-80
2023/07/28 10:55:25;;;;;;;3.20;2.47;;;23.80;99.90;;;;;;4953085;29;20485;-79
2023/07/28 10:57:52;;;;;;;6.10;2.70;;;23.70;99.90;;;;;;4954058;28;20456;-80
2023/07/28 11:00:19;;;;;;;3.20;2.30;;;23.70;99.90;;;;;;4952586;29;20413;-79
2023/07/28 11:02:46;;;;;;;2.70;2.50;;;23.70;99.90;;;;;;4953957;28;20397;-78
2023/07/28 11:05:14;;;;;;;3.35;2.30;;;23.50;99.90;;;;;;4954180;28;20477;-79
2023/07/28 11:07:43;;;;;;;2.85;2.55;;;23.50;99.90;;;;;;4952655;29;20761;-79
2023/07/28 11:10:13;;;;;;;6.90;2.72;;;23.50;99.90;;;;;;4953792;28;20499;-79
2023/07/28 11:12:43;;;;;;;2.90;2.70;;;23.60;99.90;;;;;;4953656;28;20417;-79
2023/07/28 11:15:13;;;;;;;3.22;2.72;;;23.60;99.90;;;;;;4954702;28;20401;-80
2023/07/28 11:17:40;;;;;;;3.43;2.73;;;23.70;99.90;;;;;;4954494;28;20389;-81
2023/07/28 11:20:22;;;;;;;3.28;2.65;;;23.70;99.90;;;;;;4953991;28;20405;-79
2023/07/28 11:22:56;;;;;;;3.85;2.45;;;23.70;99.90;;;;;;4953552;28;20413;-79
2023/07/28 11:25:23;;;;;;;2.72;2.53;;;23.90;99.90;;;;;;4954832;28;20957;-79
2023/07/28 11:27:50;;;;;;;2.47;2.28;;;24.10;99.90;;;;;;4952718;29;20870;-79
2023/07/28 11:30:16;;;;;;;2.90;2.60;;;24.20;99.90;;;;;;4953746;28;20508;-80
2023/07/28 11:32:44;;;;;;;3.10;2.50;;;24.00;99.90;;;;;;4951041;28;20901;-81
2023/07/28 11:35:14;;;;;;;3.45;2.65;;;24.00;99.90;;;;;;4941213;29;20492;-80
2023/07/28 11:37:43;;;;;;;2.40;2.20;;;23.70;99.90;;;;;;4954551;28;20406;-80
2023/07/28 11:40:13;;;;;;;2.53;2.33;;;23.90;99.90;;;;;;4954464;28;20500;-79
2023/07/28 11:42:53;;;;;;;2.97;2.67;;;23.90;99.90;;;;;;4953775;28;20819;-79
2023/07/28 11:45:19;;;;;;;2.90;2.60;;;24.00;99.90;;;;;;4954868;28;20409;-81
2023/07/28 11:48:00;;;;;;;3.50;2.60;;;24.10;99.90;;;;;;4954305;28;20401;-80
2023/07/28 11:50:30;;;;;;;3.97;2.60;;;24.10;99.90;;;;;;4954545;28;20449;-80
2023/07/28 11:52:57;;;;;;;3.53;2.63;;;24.30;99.90;;;;;;4953609;28;20409;-79
2023/07/28 11:55:24;;;;;;;3.60;2.75;;;24.20;99.90;;;;;;4961394;28;20469;-81
2023/07/28 11:57:51;;;;;;;3.05;2.75;;;24.10;99.90;;;;;;4960779;29;20416;-80
2023/07/28 12:00:17;;;;;;;3.10;2.85;;;24.10;99.90;;;;;;4955252;29;20402;-80
2023/07/28 12:02:44;;;;;;;4.40;3.10;;;24.10;99.90;;;;;;4953081;29;20405;-80
2023/07/28 12:05:14;;;;;;;2.90;2.50;;;24.10;99.90;;;;;;4953607;28;20405;-81
2023/07/28 12:07:40;;;;;;;3.17;2.50;;;24.10;99.90;;;;;;4958269;28;20394;-80
2023/07/28 12:10:08;;;;;;;3.00;2.70;;;24.00;99.90;;;;;;4960683;28;20500;-80
2023/07/28 12:12:41;;;;;;;3.20;2.90;;;23.90;99.90;;;;;;4958193;28;20501;-81
2023/07/28 12:15:28;;;;;;;2.97;2.67;;;23.80;99.90;;;;;;4956092;29;20408;-81
2023/07/28 12:18:09;;;;;;;5.75;2.85;;;23.90;99.90;;;;;;4953356;29;20413;-81
2023/07/28 12:20:46;;;;;;;3.45;3.10;;;23.70;99.90;;;;;;4953750;28;20398;-80
2023/07/28 12:23:14;;;;;;;3.85;3.45;;;23.70;99.90;;;;;;4956103;28;20397;-80
2023/07/28 12:25:39;;;;;;;4.75;3.60;;;23.60;99.90;;;;;;4956456;28;20393;-80
2023/07/28 12:28:05;;;;;;;4.80;3.40;;;23.70;99.90;;;;;;4955733;29;20401;-81
2023/07/28 12:30:32;;;;;;;3.80;3.50;;;23.60;99.90;;;;;;4956777;28;20925;-81
2023/07/28 12:32:57;;;;;;;3.95;2.90;;;23.50;99.90;;;;;;4955584;28;20484;-82
2023/07/28 12:35:24;;;;;;;4.50;3.42;;;23.50;99.90;;;;;;4985158;28;20425;-81
2023/07/28 12:37:51;;;;;;;3.55;3.25;;;23.50;99.90;;;;;;4956634;28;20390;-81
2023/07/28 12:40:18;;;;;;;3.30;3.00;;;23.50;99.90;;;;;;4955473;29;20422;-81
2023/07/28 12:42:46;;;;;;;3.90;3.10;;;23.30;99.90;;;;;;4956522;28;20389;-81
2023/07/28 12:45:11;;;;;;;3.00;2.70;;;23.30;99.90;;;;;;4955087;29;20429;-79
2023/07/28 12:47:37;;;;;;;3.30;2.97;;;23.30;99.90;;;;;;4937953;29;20400;-80